Time;durP1;ratioP1;P1;durP2;ratioP2;P2;SDS_P1;SDS_P2;PMS_P1;PMS_P2;Temp;Humidity;BMP_temperature;BMP_pressure;BME280_temperature;BME280_humidity;BME280_pressure;Samples;Min_cycle;Max_cycle;Signal;HPM_P1;HPM_P2
2023/11/09 00:01:44;;;;;;;0.40;0.40;;;10.50;92.30;;;;;;5115466;28;20513;-73
2023/11/09 00:04:12;;;;;;;0.57;0.38;;;10.40;92.30;;;;;;5097265;28;20043;-75
2023/11/09 00:06:38;;;;;;;0.50;0.40;;;10.50;92.30;;;;;;5098301;28;20051;-73
2023/11/09 00:09:04;;;;;;;0.40;0.40;;;10.50;92.30;;;;;;5097185;28;20046;-74
2023/11/09 00:11:30;;;;;;;0.30;0.30;;;10.50;92.30;;;;;;5115832;28;20055;-74
2023/11/09 00:13:56;;;;;;;0.30;0.30;;;10.40;92.30;;;;;;5115543;28;20063;-74
2023/11/09 00:16:23;;;;;;;0.30;0.30;;;10.50;92.40;;;;;;5115600;28;20504;-73
2023/11/09 00:18:49;;;;;;;0.50;0.40;;;10.50;92.40;;;;;;5115287;28;20082;-75
2023/11/09 00:21:15;;;;;;;0.22;0.20;;;10.50;92.40;;;;;;5096968;28;20071;-73
2023/11/09 00:23:40;;;;;;;0.38;0.35;;;10.50;92.40;;;;;;5097098;28;20048;-75
2023/11/09 00:26:08;;;;;;;0.47;0.30;;;10.50;92.40;;;;;;5115376;28;20067;-74
2023/11/09 00:28:34;;;;;;;0.30;0.30;;;10.50;92.40;;;;;;5115245;28;20472;-74
2023/11/09 00:31:00;;;;;;;0.50;0.50;;;10.50;92.40;;;;;;5115343;28;20079;-74
2023/11/09 00:33:25;;;;;;;0.20;0.20;;;10.50;92.40;;;;;;5115666;28;20078;-74
2023/11/09 00:35:53;;;;;;;0.30;0.30;;;10.50;92.40;;;;;;5115675;28;20028;-75
2023/11/09 00:38:19;;;;;;;0.30;0.30;;;10.50;92.40;;;;;;5080210;28;20393;-73
2023/11/09 00:40:46;;;;;;;0.30;0.30;;;10.50;92.40;;;;;;5115019;28;20064;-75
2023/11/09 00:43:12;;;;;;;0.55;0.30;;;10.50;92.40;;;;;;5097515;28;20047;-74
2023/11/09 00:45:37;;;;;;;0.35;0.35;;;10.50;92.40;;;;;;5097244;28;20504;-75
2023/11/09 00:48:04;;;;;;;0.30;0.30;;;10.40;92.40;;;;;;5096975;28;20032;-73
2023/11/09 00:50:30;;;;;;;0.20;0.20;;;10.50;92.50;;;;;;5114793;28;20547;-73
2023/11/09 00:52:55;;;;;;;0.28;0.28;;;10.40;92.40;;;;;;5096245;28;20090;-74
2023/11/09 00:55:21;;;;;;;0.43;0.43;;;10.50;92.50;;;;;;5079916;28;20088;-74
2023/11/09 00:57:47;;;;;;;0.30;0.30;;;10.50;92.50;;;;;;5115261;28;20036;-74
2023/11/09 01:00:13;;;;;;;0.30;0.30;;;10.50;92.50;;;;;;5097072;28;20040;-73
2023/11/09 01:02:39;;;;;;;0.43;0.35;;;10.50;92.50;;;;;;5079333;28;20039;-74
2023/11/09 01:05:06;;;;;;;0.30;0.30;;;10.50;92.50;;;;;;5113901;28;20035;-74
2023/11/09 01:07:32;;;;;;;0.20;0.20;;;10.40;92.50;;;;;;5096695;28;20050;-75
2023/11/09 01:09:58;;;;;;;0.22;0.22;;;10.40;92.50;;;;;;5114164;28;20333;-75
2023/11/09 01:12:25;;;;;;;0.30;0.30;;;10.40;92.50;;;;;;5079207;28;20048;-74
2023/11/09 01:14:52;;;;;;;0.30;0.30;;;10.40;92.50;;;;;;5114827;28;20419;-74
2023/11/09 01:17:17;;;;;;;0.25;0.25;;;10.40;92.60;;;;;;5079734;28;20035;-74
2023/11/09 01:19:43;;;;;;;0.40;0.30;;;10.40;92.60;;;;;;5096008;28;20051;-75
2023/11/09 01:22:09;;;;;;;0.32;0.32;;;10.40;92.60;;;;;;5078833;28;20047;-73
2023/11/09 01:24:35;;;;;;;0.30;0.30;;;10.40;92.80;;;;;;5114349;28;20050;-73
2023/11/09 01:27:01;;;;;;;0.28;0.28;;;10.40;92.60;;;;;;5113946;28;20047;-75
2023/11/09 01:29:28;;;;;;;0.20;0.20;;;10.40;92.60;;;;;;5095848;28;20126;-76
2023/11/09 01:31:54;;;;;;;0.20;0.20;;;10.40;92.60;;;;;;5113913;28;20040;-75
2023/11/09 01:34:21;;;;;;;0.30;0.30;;;10.40;92.60;;;;;;5113910;28;20054;-74
2023/11/09 01:36:47;;;;;;;0.20;0.20;;;10.40;92.60;;;;;;5113908;28;20176;-74
2023/11/09 01:39:13;;;;;;;0.40;0.40;;;10.40;92.60;;;;;;5095903;28;20143;-74
2023/11/09 01:41:41;;;;;;;0.50;0.30;;;10.40;92.60;;;;;;5113949;28;20496;-75
2023/11/09 01:44:07;;;;;;;0.20;0.20;;;10.40;92.60;;;;;;5113997;28;20040;-75
2023/11/09 01:46:33;;;;;;;0.40;0.40;;;10.40;92.60;;;;;;5113736;28;20074;-75
2023/11/09 01:49:00;;;;;;;0.65;0.50;;;10.40;92.60;;;;;;5078646;28;20054;-74
2023/11/09 01:51:28;;;;;;;0.30;0.30;;;10.40;92.60;;;;;;5113522;28;20047;-75
2023/11/09 01:53:55;;;;;;;0.50;0.50;;;10.50;92.60;;;;;;5078685;28;20035;-73
2023/11/09 01:56:22;;;;;;;0.43;0.38;;;10.50;92.60;;;;;;5113467;28;20166;-74
2023/11/09 01:58:49;;;;;;;0.30;0.30;;;10.40;92.60;;;;;;5095543;28;20038;-73
2023/11/09 02:01:19;;;;;;;0.50;0.40;;;10.50;92.70;;;;;;5078441;28;20040;-74
2023/11/09 02:03:45;;;;;;;0.57;0.40;;;10.40;92.60;;;;;;5095255;28;20043;-75
2023/11/09 02:06:12;;;;;;;0.30;0.30;;;10.40;92.60;;;;;;5078445;28;20043;-75
2023/11/09 02:08:39;;;;;;;0.40;0.40;;;10.50;92.70;;;;;;5078304;28;20061;-74
2023/11/09 02:11:05;;;;;;;0.32;0.20;;;10.40;92.70;;;;;;5078382;28;20102;-75
2023/11/09 02:13:32;;;;;;;0.25;0.25;;;10.40;92.70;;;;;;5095066;28;20031;-75
2023/11/09 02:16:00;;;;;;;0.22;0.22;;;10.40;92.70;;;;;;5113137;28;20118;-74
2023/11/09 02:18:26;;;;;;;1.23;0.30;;;10.40;92.70;;;;;;5092802;28;20036;-76
2023/11/09 02:20:52;;;;;;;0.20;0.20;;;10.40;92.70;;;;;;5094770;28;20074;-74
2023/11/09 02:23:20;;;;;;;0.38;0.28;;;10.40;92.70;;;;;;5094965;28;20477;-74
2023/11/09 02:25:47;;;;;;;0.77;0.30;;;10.40;92.70;;;;;;5113471;28;20397;-75
2023/11/09 02:28:13;;;;;;;0.30;0.30;;;10.50;92.70;;;;;;5113691;28;20043;-75
2023/11/09 02:30:39;;;;;;;0.28;0.28;;;10.50;92.70;;;;;;5112812;28;20048;-75
2023/11/09 02:33:07;;;;;;;0.30;0.30;;;10.40;92.70;;;;;;5077883;28;20500;-73
2023/11/09 02:35:33;;;;;;;0.30;0.30;;;10.40;92.70;;;;;;5113186;28;20040;-74
2023/11/09 02:37:58;;;;;;;0.30;0.30;;;10.40;92.70;;;;;;5078444;28;20330;-75
2023/11/09 02:40:24;;;;;;;0.63;0.40;;;10.50;92.70;;;;;;5112878;28;20118;-74
2023/11/09 02:42:50;;;;;;;0.30;0.30;;;10.40;92.70;;;;;;5113570;28;20047;-75
2023/11/09 02:45:15;;;;;;;1.35;0.40;;;10.50;92.70;;;;;;5094807;28;20130;-74
2023/11/09 02:47:41;;;;;;;0.38;0.20;;;10.50;92.70;;;;;;5113018;28;20073;-75
2023/11/09 02:50:09;;;;;;;0.73;0.40;;;10.50;92.70;;;;;;5060945;28;20077;-74
2023/11/09 02:52:34;;;;;;;0.40;0.40;;;10.50;92.80;;;;;;5078348;28;20075;-76
2023/11/09 02:55:00;;;;;;;0.45;0.30;;;10.40;92.70;;;;;;5094571;28;20112;-75
2023/11/09 02:57:27;;;;;;;0.22;0.20;;;10.50;92.80;;;;;;5112976;28;20419;-75
2023/11/09 02:59:54;;;;;;;0.40;0.40;;;10.50;92.80;;;;;;5094320;28;20039;-73
2023/11/09 03:02:20;;;;;;;0.40;0.40;;;10.50;93.00;;;;;;5112700;28;20071;-74
2023/11/09 03:04:47;;;;;;;0.60;0.40;;;10.50;92.80;;;;;;5077333;28;20086;-74
2023/11/09 03:07:13;;;;;;;0.35;0.30;;;10.50;92.80;;;;;;5094945;28;20043;-74
2023/11/09 03:09:40;;;;;;;0.30;0.30;;;10.60;92.80;;;;;;5094114;28;20067;-75
2023/11/09 03:12:07;;;;;;;0.40;0.38;;;10.50;92.80;;;;;;5094107;28;20036;-74
2023/11/09 03:14:33;;;;;;;0.40;0.40;;;10.50;92.80;;;;;;5112515;28;20047;-74
2023/11/09 03:17:03;;;;;;;0.30;0.30;;;10.50;92.80;;;;;;5094577;28;20040;-74
2023/11/09 03:19:28;;;;;;;0.30;0.30;;;10.50;92.80;;;;;;5078001;28;20051;-74
2023/11/09 03:21:54;;;;;;;0.40;0.40;;;10.50;92.80;;;;;;5112454;28;20075;-72
2023/11/09 03:24:20;;;;;;;0.40;0.40;;;10.50;92.80;;;;;;5094243;28;20047;-73
2023/11/09 03:26:46;;;;;;;1.27;0.50;;;10.50;92.80;;;;;;5112743;28;20118;-73
2023/11/09 03:29:12;;;;;;;0.50;0.50;;;10.50;92.80;;;;;;5116559;28;20032;-74
2023/11/09 03:31:38;;;;;;;0.77;0.40;;;10.50;92.80;;;;;;5116168;28;20031;-74
2023/11/09 03:34:03;;;;;;;0.40;0.40;;;10.50;92.80;;;;;;5097514;28;20066;-74
2023/11/09 03:36:29;;;;;;;0.50;0.50;;;10.50;92.80;;;;;;5097944;28;20390;-74
2023/11/09 03:38:55;;;;;;;0.30;0.30;;;10.50;92.80;;;;;;5116151;28;20481;-75
2023/11/09 03:41:23;;;;;;;0.43;0.40;;;10.60;92.80;;;;;;5098140;28;20042;-73
2023/11/09 03:43:49;;;;;;;0.55;0.55;;;10.60;92.80;;;;;;5080615;28;20104;-73
2023/11/09 03:46:14;;;;;;;0.40;0.40;;;10.60;92.80;;;;;;5116274;28;20125;-74
2023/11/09 03:48:41;;;;;;;0.40;0.30;;;10.60;92.90;;;;;;5116242;28;20481;-74
2023/11/09 03:51:07;;;;;;;0.40;0.40;;;10.60;92.90;;;;;;5115597;28;20039;-73
2023/11/09 03:53:32;;;;;;;0.40;0.40;;;10.60;92.90;;;;;;5097950;28;20081;-73
2023/11/09 03:55:58;;;;;;;0.40;0.40;;;10.60;92.90;;;;;;5097501;28;20404;-74
2023/11/09 03:58:24;;;;;;;0.30;0.30;;;10.50;92.80;;;;;;5097064;28;20481;-74
2023/11/09 04:00:50;;;;;;;0.47;0.47;;;10.60;92.90;;;;;;5097373;28;20027;-74
2023/11/09 04:03:15;;;;;;;0.35;0.35;;;10.60;92.90;;;;;;5097194;28;20101;-74
2023/11/09 04:05:41;;;;;;;0.50;0.50;;;10.60;92.90;;;;;;5080427;28;20065;-73
2023/11/09 04:08:07;;;;;;;0.60;0.50;;;10.60;92.90;;;;;;5097160;28;20067;-73
2023/11/09 04:10:32;;;;;;;0.40;0.40;;;10.70;92.90;;;;;;5115726;28;20512;-73
2023/11/09 04:12:58;;;;;;;0.75;0.75;;;10.60;92.90;;;;;;5115052;28;20044;-74
2023/11/09 04:15:24;;;;;;;0.50;0.50;;;10.70;92.90;;;;;;5097671;28;20089;-73
2023/11/09 04:17:50;;;;;;;0.60;0.60;;;10.70;92.90;;;;;;5097335;28;20496;-73
2023/11/09 04:20:16;;;;;;;0.50;0.50;;;10.60;92.90;;;;;;5115199;28;20102;-73
2023/11/09 04:22:43;;;;;;;0.50;0.50;;;10.70;92.90;;;;;;5115590;28;20039;-74
2023/11/09 04:25:10;;;;;;;0.75;0.60;;;10.70;92.90;;;;;;5094815;28;20043;-74
2023/11/09 04:27:37;;;;;;;0.43;0.30;;;10.70;92.90;;;;;;5097353;28;20043;-74
2023/11/09 04:30:03;;;;;;;0.40;0.40;;;10.70;92.90;;;;;;5097232;28;20044;-74
2023/11/09 04:32:29;;;;;;;0.47;0.47;;;10.70;92.90;;;;;;5114728;28;20028;-73
2023/11/09 04:34:56;;;;;;;0.50;0.50;;;10.70;92.90;;;;;;5097246;28;20027;-74
2023/11/09 04:37:25;;;;;;;0.40;0.40;;;10.80;92.90;;;;;;5096723;28;20038;-74
2023/11/09 04:39:57;;;;;;;0.43;0.43;;;10.80;92.90;;;;;;5096932;28;20534;-74
2023/11/09 04:42:29;;;;;;;0.45;0.45;;;10.80;92.90;;;;;;5096388;28;20036;-73
2023/11/09 04:44:56;;;;;;;;;;;10.80;92.90;;;;;;5097703;28;20046;-75
2023/11/09 04:47:25;;;;;;;0.77;0.57;;;10.80;92.90;;;;;;5097025;28;19939;-73
2023/11/09 04:50:00;;;;;;;0.50;0.50;;;10.80;92.90;;;;;;5114767;28;20422;-74
2023/11/09 04:52:29;;;;;;;0.75;0.50;;;10.80;92.90;;;;;;5114934;28;20040;-74
2023/11/09 04:55:07;;;;;;;0.88;0.52;;;10.80;92.90;;;;;;5114553;28;20059;-74
2023/11/09 05:08:13;;;;;;;1.30;0.77;;;10.90;92.90;;;;;;5114639;28;20538;-73
2023/11/09 05:10:39;;;;;;;0.95;0.85;;;10.80;92.90;;;;;;5115036;28;20044;-74
2023/11/09 05:13:04;;;;;;;0.70;0.70;;;10.90;92.90;;;;;;5096033;28;20052;-74
2023/11/09 05:15:30;;;;;;;1.05;0.80;;;10.90;92.90;;;;;;5114739;28;20027;-73
2023/11/09 05:17:56;;;;;;;1.00;0.88;;;10.90;92.90;;;;;;5096885;28;20043;-74
2023/11/09 05:20:21;;;;;;;0.70;0.70;;;10.90;92.90;;;;;;5114901;28;20036;-74
2023/11/09 05:22:47;;;;;;;0.60;0.60;;;11.00;93.00;;;;;;5096624;28;20485;-74
2023/11/09 05:25:15;;;;;;;0.80;0.80;;;11.00;92.90;;;;;;5096424;28;20044;-74
2023/11/09 05:27:41;;;;;;;0.57;0.57;;;11.00;93.00;;;;;;5114651;28;20055;-73
2023/11/09 05:30:08;;;;;;;0.88;0.85;;;11.00;93.00;;;;;;5079405;28;20489;-73
2023/11/09 05:32:34;;;;;;;0.60;0.60;;;11.00;93.00;;;;;;5096037;28;20115;-74
2023/11/09 05:35:04;;;;;;;0.85;0.82;;;11.00;93.00;;;;;;5096049;28;20124;-75
2023/11/09 05:37:33;;;;;;;0.50;0.50;;;11.00;93.00;;;;;;5097011;28;20458;-74
2023/11/09 05:39:59;;;;;;;1.10;0.85;;;11.00;93.00;;;;;;5096093;28;20088;-74
2023/11/09 05:42:25;;;;;;;0.80;0.80;;;11.00;93.00;;;;;;5114326;28;20134;-74
2023/11/09 05:44:51;;;;;;;1.08;0.95;;;11.00;93.00;;;;;;5114019;28;20043;-73
2023/11/09 05:47:16;;;;;;;1.27;1.00;;;11.00;93.00;;;;;;5078823;28;20096;-74
2023/11/09 05:49:42;;;;;;;1.00;0.88;;;11.00;93.00;;;;;;5113541;28;20036;-74
2023/11/09 05:52:09;;;;;;;0.70;0.70;;;10.90;93.00;;;;;;5078909;28;20043;-75
2023/11/09 05:54:35;;;;;;;0.63;0.63;;;10.90;93.30;;;;;;5095984;28;20073;-74
2023/11/09 05:57:00;;;;;;;1.10;1.00;;;10.90;93.00;;;;;;5095919;28;20039;-74
2023/11/09 05:59:26;;;;;;;0.65;0.65;;;10.90;93.10;;;;;;5113853;28;20028;-74
2023/11/09 06:01:52;;;;;;;0.70;0.70;;;10.90;93.10;;;;;;5078860;28;20465;-74
2023/11/09 06:04:18;;;;;;;0.80;0.80;;;10.80;93.10;;;;;;5095681;28;20048;-74
2023/11/09 06:06:44;;;;;;;0.80;0.80;;;10.80;93.10;;;;;;5114209;28;20040;-74
2023/11/09 06:09:10;;;;;;;0.82;0.80;;;10.70;93.10;;;;;;5095404;28;20039;-74
2023/11/09 06:11:36;;;;;;;0.65;0.65;;;10.80;93.10;;;;;;5095381;28;20042;-74
2023/11/09 06:14:03;;;;;;;0.70;0.70;;;10.70;93.10;;;;;;5095870;28;20040;-74
2023/11/09 06:16:30;;;;;;;0.52;0.52;;;10.70;93.10;;;;;;5095753;28;20043;-74
2023/11/09 06:18:56;;;;;;;1.23;0.82;;;10.70;93.20;;;;;;5113762;28;20126;-73
2023/11/09 06:21:21;;;;;;;0.82;0.65;;;10.60;93.10;;;;;;5095581;28;20074;-74
2023/11/09 06:23:50;;;;;;;1.05;0.75;;;10.60;93.20;;;;;;5095182;28;20050;-74
2023/11/09 06:26:15;;;;;;;1.02;0.80;;;10.50;93.20;;;;;;5078858;28;20055;-74
2023/11/09 06:28:41;;;;;;;0.73;0.70;;;10.60;93.20;;;;;;5095320;28;20044;-74
2023/11/09 06:31:07;;;;;;;0.98;0.70;;;10.50;93.20;;;;;;5095771;28;20040;-74
2023/11/09 06:33:33;;;;;;;0.88;0.70;;;10.50;93.20;;;;;;5095428;28;20078;-73
2023/11/09 06:35:59;;;;;;;1.08;0.68;;;10.50;93.20;;;;;;5113740;28;20046;-73
2023/11/09 06:38:24;;;;;;;1.40;0.75;;;10.40;93.20;;;;;;5094827;28;20078;-73
2023/11/09 06:40:50;;;;;;;1.80;0.70;;;10.40;93.20;;;;;;5095068;28;20127;-73
2023/11/09 06:43:16;;;;;;;1.40;0.85;;;10.40;93.20;;;;;;5113757;28;20035;-73
2023/11/09 06:45:42;;;;;;;1.60;0.90;;;10.40;93.20;;;;;;5078240;28;20039;-73
2023/11/09 06:48:08;;;;;;;1.30;0.55;;;10.30;93.20;;;;;;5094896;28;20397;-74
2023/11/09 06:50:33;;;;;;;1.50;0.70;;;10.30;93.20;;;;;;5094703;28;20058;-73
2023/11/09 06:53:00;;;;;;;1.50;0.70;;;10.30;93.20;;;;;;5113338;28;20050;-74
2023/11/09 06:55:28;;;;;;;0.80;0.60;;;10.30;93.20;;;;;;5094635;28;20089;-75
2023/11/09 06:57:54;;;;;;;1.98;0.63;;;10.20;93.20;;;;;;5095207;28;20039;-74
2023/11/09 07:00:22;;;;;;;1.15;0.70;;;10.30;93.20;;;;;;5112752;28;20034;-74
2023/11/09 07:02:49;;;;;;;1.10;0.75;;;10.20;93.20;;;;;;5094596;28;20043;-74
2023/11/09 07:05:15;;;;;;;0.77;0.60;;;10.30;93.20;;;;;;5112753;28;20071;-74
2023/11/09 07:07:40;;;;;;;1.50;0.80;;;10.20;93.10;;;;;;5077912;28;20503;-75
2023/11/09 07:10:07;;;;;;;1.23;0.82;;;10.20;93.20;;;;;;5113370;28;20127;-75
2023/11/09 07:12:34;;;;;;;1.45;0.90;;;10.30;93.20;;;;;;5094525;28;20393;-76
2023/11/09 07:15:00;;;;;;;1.63;0.73;;;10.20;93.10;;;;;;5095289;28;20044;-76
2023/11/09 07:17:26;;;;;;;1.02;0.70;;;10.20;93.10;;;;;;5095241;28;20028;-75
2023/11/09 07:19:51;;;;;;;0.80;0.70;;;10.20;93.10;;;;;;5112999;28;20500;-76
2023/11/09 07:22:21;;;;;;;1.00;0.60;;;10.30;93.20;;;;;;5094603;28;20032;-75
2023/11/09 07:24:52;;;;;;;0.77;0.73;;;10.20;93.10;;;;;;5094063;28;20044;-75
2023/11/09 07:27:18;;;;;;;0.88;0.65;;;10.20;93.10;;;;;;5094722;28;20078;-76
2023/11/09 07:29:44;;;;;;;1.92;0.57;;;10.20;93.10;;;;;;5094368;28;20040;-76
2023/11/09 07:35:24;;;;;;;1.10;0.77;;;10.20;93.10;;;;;;4990632;28;20046;-76
2023/11/09 07:38:23;;;;;;;0.43;0.43;;;10.20;93.10;;;;;;4990176;28;20108;-76
2023/11/09 07:41:26;;;;;;;0.70;0.60;;;10.20;93.10;;;;;;4987208;28;20066;-76
2023/11/09 07:44:03;;;;;;;1.67;0.60;;;10.20;93.10;;;;;;4950740;28;20070;-76
2023/11/09 07:53:30;;;;;;;0.68;0.68;;;10.20;93.00;;;;;;4884614;29;20145;-75
2023/11/09 07:59:45;;;;;;;1.92;0.90;;;10.20;93.00;;;;;;4831363;29;20137;-75
2023/11/09 08:09:25;;;;;;;1.08;0.80;;;10.20;92.90;;;;;;4759336;30;20054;-75
2023/11/09 08:42:31;;;;;;;1.42;1.10;;;10.20;92.80;;;;;;4749286;30;20110;-76
2023/11/09 08:56:10;;;;;;;2.70;1.20;;;10.20;92.80;;;;;;4741192;30;20449;-74
2023/11/09 08:59:04;;;;;;;1.63;1.20;;;10.20;92.80;;;;;;4677007;30;20572;-74
2023/11/09 09:01:39;;;;;;;2.78;1.70;;;10.20;92.80;;;;;;4681855;30;20108;-73
2023/11/09 09:04:24;;;;;;;2.38;1.40;;;10.30;92.80;;;;;;4764810;29;20084;-74
2023/11/09 09:14:12;;;;;;;2.72;1.50;;;10.30;92.70;;;;;;4802318;29;20104;-75
2023/11/09 09:20:48;;;;;;;3.25;1.52;;;10.40;92.70;;;;;;4839562;29;20037;-74
2023/11/09 09:30:17;;;;;;;2.58;1.50;;;10.40;92.60;;;;;;4785743;30;20058;-74
2023/11/09 09:33:17;;;;;;;;;;;10.50;92.60;;;;;;4771192;30;20522;-74
2023/11/09 09:39:10;;;;;;;4.57;1.75;;;10.60;92.60;;;;;;4715620;30;20557;-74
2023/11/09 09:41:49;;;;;;;2.45;1.67;;;10.60;92.50;;;;;;4717464;30;20067;-73
2023/11/09 09:44:17;;;;;;;4.88;2.50;;;10.70;92.60;;;;;;4741644;30;20051;-75
2023/11/09 09:47:30;;;;;;;5.97;2.45;;;10.60;92.50;;;;;;4756681;30;20051;-75
2023/11/09 09:50:00;;;;;;;5.30;2.42;;;10.60;92.40;;;;;;4761688;29;20053;-74
2023/11/09 09:52:38;;;;;;;3.03;1.77;;;10.70;92.50;;;;;;4858609;29;20559;-75
2023/11/09 09:55:18;;;;;;;4.85;2.20;;;10.70;92.40;;;;;;4845448;29;20052;-74
2023/11/09 09:57:48;;;;;;;5.63;2.80;;;10.70;92.30;;;;;;4925866;29;20043;-74
2023/11/09 10:00:26;;;;;;;5.93;2.80;;;10.80;92.30;;;;;;4933759;29;20043;-75
2023/11/09 10:03:25;;;;;;;4.45;2.70;;;10.60;92.30;;;;;;4939862;28;20043;-75
2023/11/09 10:06:31;;;;;;;5.93;2.72;;;10.60;92.30;;;;;;4899047;29;20059;-75
2023/11/09 10:09:55;;;;;;;5.47;2.90;;;10.80;92.30;;;;;;4913988;29;20057;-75
2023/11/09 10:12:39;;;;;;;4.05;2.30;;;10.70;92.20;;;;;;4999064;28;20053;-74
2023/11/09 10:15:16;;;;;;;5.75;3.05;;;10.70;92.20;;;;;;4972297;28;20034;-74
2023/11/09 10:17:52;;;;;;;7.10;3.25;;;10.70;92.30;;;;;;4990709;28;20043;-74
2023/11/09 10:20:36;;;;;;;5.97;2.80;;;10.70;92.20;;;;;;4974381;28;20053;-75
2023/11/09 10:23:34;;;;;;;4.78;2.80;;;10.80;92.30;;;;;;4973891;28;20117;-74
2023/11/09 10:26:51;;;;;;;5.47;2.83;;;10.60;92.20;;;;;;4966737;28;20039;-75
2023/11/09 10:29:22;;;;;;;6.18;2.95;;;10.80;92.30;;;;;;4968056;28;20510;-74
2023/11/09 10:32:15;;;;;;;5.28;2.75;;;10.70;92.20;;;;;;4933205;29;20047;-73
2023/11/09 10:35:05;;;;;;;5.05;2.70;;;10.70;92.20;;;;;;4963656;28;20404;-73
2023/11/09 10:37:33;;;;;;;4.82;2.60;;;10.80;92.20;;;;;;4986863;28;20125;-73
2023/11/09 10:40:04;;;;;;;4.47;2.10;;;10.80;92.20;;;;;;5008129;28;20504;-73
2023/11/09 10:42:33;;;;;;;3.67;2.15;;;10.90;92.10;;;;;;4999034;28;20041;-74
2023/11/09 10:45:02;;;;;;;3.45;1.90;;;10.90;92.10;;;;;;5028900;28;20115;-75
2023/11/09 10:47:30;;;;;;;4.07;2.25;;;10.90;92.10;;;;;;5030303;28;20033;-73
2023/11/09 10:49:58;;;;;;;6.03;2.50;;;10.90;92.10;;;;;;5035449;28;20036;-75
2023/11/09 10:53:00;;;;;;;4.90;2.40;;;10.80;92.00;;;;;;5033710;28;20047;-75
2023/11/09 10:55:38;;;;;;;;;;;10.90;92.00;;;;;;4994203;28;20048;-74
2023/11/09 10:58:05;;;;;;;4.13;1.95;;;10.90;92.00;;;;;;4990600;28;20044;-73
2023/11/09 11:00:42;;;;;;;3.13;1.90;;;11.00;91.90;;;;;;4974444;28;20509;-74
2023/11/09 11:03:28;;;;;;;3.65;1.95;;;11.10;91.90;;;;;;4958507;28;20039;-75
2023/11/09 11:05:59;;;;;;;3.80;1.90;;;11.10;91.80;;;;;;4976082;28;20053;-74
2023/11/09 11:08:35;;;;;;;3.97;2.03;;;11.00;91.70;;;;;;5002684;28;20114;-75
2023/11/09 11:11:04;;;;;;;4.32;2.10;;;11.10;91.70;;;;;;5002035;28;20068;-76
2023/11/09 11:13:40;;;;;;;3.17;1.75;;;11.10;91.60;;;;;;5009780;28;20125;-76
2023/11/09 11:16:32;;;;;;;6.03;1.77;;;11.10;91.60;;;;;;4977787;28;20038;-75
2023/11/09 11:19:33;;;;;;;4.30;1.88;;;11.20;91.60;;;;;;4993397;28;20045;-75
2023/11/09 11:22:22;;;;;;;4.70;1.67;;;11.20;91.60;;;;;;4978242;28;20586;-75
2023/11/09 11:25:30;;;;;;;4.07;1.50;;;11.20;91.50;;;;;;4977730;28;20184;-75
2023/11/09 11:27:58;;;;;;;2.63;1.30;;;11.20;91.40;;;;;;4996021;28;20056;-75
2023/11/09 11:30:36;;;;;;;4.15;1.42;;;11.20;91.40;;;;;;5020035;28;20048;-75
2023/11/09 11:33:07;;;;;;;3.00;1.50;;;11.20;91.30;;;;;;5036971;28;20135;-75
2023/11/09 11:35:39;;;;;;;2.72;1.23;;;11.20;91.30;;;;;;5020045;28;20494;-76
2023/11/09 11:38:23;;;;;;;3.55;1.15;;;11.20;91.30;;;;;;5036727;28;20037;-76
2023/11/09 11:40:52;;;;;;;4.50;1.50;;;11.10;91.20;;;;;;5020092;28;20098;-74
2023/11/09 11:43:20;;;;;;;3.75;1.38;;;11.30;91.20;;;;;;5037642;28;20127;-75
2023/11/09 11:45:47;;;;;;;1.95;1.00;;;11.30;91.10;;;;;;5076944;28;20047;-74
2023/11/09 11:48:30;;;;;;;3.03;1.02;;;11.40;91.00;;;;;;5078667;28;20032;-75
2023/11/09 11:50:59;;;;;;;1.52;0.88;;;11.40;90.90;;;;;;5114401;28;20036;-75
2023/11/09 11:53:28;;;;;;;3.67;0.95;;;11.40;90.90;;;;;;5097804;28;20050;-75
2023/11/09 11:56:14;;;;;;;3.15;0.80;;;11.50;90.80;;;;;;5080849;28;20036;-75
2023/11/09 11:58:47;;;;;;;3.72;0.90;;;11.60;90.70;;;;;;5115619;28;20059;-75
2023/11/09 12:01:23;;;;;;;2.40;0.80;;;11.60;90.70;;;;;;5115684;28;20039;-75
2023/11/09 12:03:52;;;;;;;2.53;0.95;;;11.70;90.60;;;;;;5080290;28;20066;-74
2023/11/09 12:06:20;;;;;;;1.98;1.00;;;11.60;90.50;;;;;;5115656;28;20046;-75
2023/11/09 12:08:49;;;;;;;2.40;0.90;;;11.50;90.40;;;;;;5080850;28;20511;-73
2023/11/09 12:11:16;;;;;;;2.17;0.80;;;11.50;90.40;;;;;;5097254;28;20391;-75
2023/11/09 12:13:42;;;;;;;3.10;0.70;;;11.50;90.40;;;;;;5098182;28;20044;-73
2023/11/09 12:16:09;;;;;;;1.20;0.60;;;11.60;90.50;;;;;;5115580;28;20031;-73
2023/11/09 12:18:36;;;;;;;1.92;0.85;;;11.40;90.40;;;;;;5115478;28;20051;-74
2023/11/09 12:21:05;;;;;;;2.80;0.77;;;11.40;90.40;;;;;;5097717;28;20064;-75
2023/11/09 12:23:33;;;;;;;1.98;0.80;;;11.40;90.40;;;;;;5097177;28;20508;-74
2023/11/09 12:25:59;;;;;;;2.95;0.90;;;11.40;90.40;;;;;;5115367;28;20043;-74
2023/11/09 12:28:24;;;;;;;2.47;0.77;;;11.40;90.30;;;;;;5115352;28;20040;-74
2023/11/09 12:30:50;;;;;;;2.45;0.77;;;11.40;90.30;;;;;;5080818;28;20039;-74
2023/11/09 12:33:16;;;;;;;3.58;0.98;;;11.40;90.30;;;;;;5115516;28;20051;-75
2023/11/09 12:36:04;;;;;;;1.95;0.75;;;11.40;90.20;;;;;;5115621;28;20043;-74
2023/11/09 12:38:33;;;;;;;1.42;0.68;;;11.40;90.20;;;;;;5094845;28;20130;-75
2023/11/09 12:41:02;;;;;;;0.75;0.50;;;11.50;90.20;;;;;;5097164;28;20039;-76
2023/11/09 12:43:35;;;;;;;1.27;0.50;;;11.50;90.00;;;;;;5079839;28;20040;-75
2023/11/09 12:46:55;;;;;;;1.85;0.70;;;11.60;90.00;;;;;;5063264;28;20070;-76
2023/11/09 12:49:34;;;;;;;1.85;0.50;;;11.60;89.70;;;;;;5096090;28;20052;-75
2023/11/09 12:55:24;;;;;;;0.40;0.40;;;11.50;89.50;;;;;;5013173;28;20080;-76
2023/11/09 13:01:35;;;;;;;1.52;0.60;;;11.60;89.50;;;;;;4972372;28;20065;-75
2023/11/09 13:04:21;;;;;;;0.98;0.57;;;11.60;89.60;;;;;;4933574;29;20071;-74
2023/11/09 13:06:54;;;;;;;2.60;0.50;;;11.60;89.50;;;;;;4937484;28;20126;-74
2023/11/09 13:12:52;;;;;;;0.63;0.50;;;11.60;89.30;;;;;;4919993;28;20047;-76
2023/11/09 13:21:32;;;;;;;0.75;0.50;;;11.60;89.10;;;;;;4972365;28;20057;-75
2023/11/09 13:27:39;;;;;;;3.35;0.75;;;11.60;89.10;;;;;;4913983;29;20561;-75
2023/11/09 13:38:08;;;;;;;1.30;0.65;;;11.60;89.00;;;;;;4913210;29;20051;-75
2023/11/09 13:40:35;;;;;;;1.10;0.57;;;11.50;89.00;;;;;;4899036;29;20052;-75
2023/11/09 13:43:10;;;;;;;2.35;0.88;;;11.50;89.00;;;;;;4919846;29;20103;-74
2023/11/09 13:45:45;;;;;;;4.20;1.10;;;11.50;88.90;;;;;;4992447;28;20416;-74
2023/11/09 13:48:14;;;;;;;0.98;0.60;;;11.50;88.90;;;;;;5011842;28;20145;-75
2023/11/09 13:50:46;;;;;;;1.33;0.80;;;11.50;88.90;;;;;;4979222;28;20053;-75
2023/11/09 13:53:40;;;;;;;1.75;0.65;;;11.50;89.00;;;;;;5011311;28;20054;-75
2023/11/09 13:58:56;;;;;;;1.27;0.65;;;11.40;89.10;;;;;;5068547;28;20048;-75
2023/11/09 14:01:28;;;;;;;2.25;0.70;;;11.40;89.10;;;;;;5026494;28;20038;-75
2023/11/09 14:14:41;;;;;;;1.33;0.57;;;11.40;89.20;;;;;;4949790;29;20057;-75
2023/11/09 14:17:51;;;;;;;1.77;0.70;;;11.30;89.10;;;;;;4891527;29;20488;-75
2023/11/09 14:20:52;;;;;;;2.80;0.63;;;11.40;89.10;;;;;;4875505;29;20093;-75
2023/11/09 14:23:23;;;;;;;3.33;0.80;;;11.30;89.10;;;;;;4820055;29;20047;-75
2023/11/09 14:25:57;;;;;;;3.95;0.90;;;11.40;89.10;;;;;;4824171;29;20054;-75
2023/11/09 14:28:24;;;;;;;1.88;0.70;;;11.50;89.20;;;;;;4839049;29;20077;-74
2023/11/09 14:30:59;;;;;;;0.68;0.40;;;11.40;89.00;;;;;;4824533;29;20394;-75
2023/11/09 14:33:29;;;;;;;2.45;0.70;;;11.40;89.00;;;;;;4824448;29;20050;-75
2023/11/09 14:35:58;;;;;;;0.50;0.50;;;11.40;89.00;;;;;;4839660;29;20041;-75
2023/11/09 14:38:25;;;;;;;1.27;0.70;;;11.50;89.00;;;;;;4768334;29;20055;-75
2023/11/09 14:40:54;;;;;;;1.60;0.70;;;11.50;88.90;;;;;;4833166;29;20172;-74
2023/11/09 14:43:20;;;;;;;1.33;0.70;;;11.60;88.90;;;;;;4858523;29;20049;-74
2023/11/09 14:45:49;;;;;;;1.35;0.75;;;11.60;88.80;;;;;;4890087;29;20048;-74
2023/11/09 14:48:17;;;;;;;2.05;1.10;;;11.50;88.70;;;;;;4958805;28;20049;-75
2023/11/09 14:50:45;;;;;;;2.63;0.80;;;11.70;88.70;;;;;;4981476;28;20042;-74
2023/11/09 14:53:16;;;;;;;4.40;0.68;;;11.60;88.60;;;;;;4974573;28;20050;-75
2023/11/09 14:55:54;;;;;;;1.83;0.60;;;11.60;88.60;;;;;;4960688;28;20049;-75
2023/11/09 14:58:30;;;;;;;1.67;0.70;;;11.60;88.60;;;;;;4990033;28;20543;-75
2023/11/09 15:00:59;;;;;;;2.35;0.80;;;11.60;88.70;;;;;;4990474;28;20111;-75
2023/11/09 15:03:32;;;;;;;2.20;0.70;;;11.50;88.60;;;;;;4970958;28;20112;-76
2023/11/09 15:06:09;;;;;;;1.75;0.80;;;11.50;88.70;;;;;;4957678;28;20030;-76
2023/11/09 15:11:53;;;;;;;2.88;0.90;;;11.50;88.90;;;;;;4819807;29;20050;-75
2023/11/09 15:18:31;;;;;;;1.67;0.80;;;11.50;88.80;;;;;;4817417;29;20054;-76
2023/11/09 15:21:27;;;;;;;1.27;0.60;;;11.50;88.70;;;;;;4804161;29;20058;-75
2023/11/09 15:24:30;;;;;;;1.98;0.65;;;11.50;88.70;;;;;;4788762;29;20038;-76
2023/11/09 15:27:02;;;;;;;3.22;1.10;;;11.50;88.70;;;;;;4840941;29;20449;-74
2023/11/09 15:29:53;;;;;;;2.35;0.82;;;11.50;88.70;;;;;;4772629;29;20047;-75
2023/11/09 15:41:46;;;;;;;3.42;0.90;;;11.40;88.40;;;;;;4737686;30;20408;-75